Time,TemperatureF,DewpointF,PressureIn,WindDirection,WindDirectionDegrees,WindSpeedMPH,WindSpeedGustMPH,Humidity,HourlyPrecipIn,Conditions,Clouds,dailyrainin,SoftwareType,DateUTC
2016-07-25 00:04:00,74.5,72.0,29.93,WNW,302,2.0,3.0,93,0.00,,,0.00,weatherlink.com 1.10,2016-07-25 04:04:00,
2016-07-25 00:19:00,74.4,73.0,29.93,WNW,302,1.0,2.0,94,0.00,,,0.00,weatherlink.com 1.10,2016-07-25 04:19:00,
2016-07-25 00:34:00,74.4,73.0,29.93,NW,321,2.0,3.0,94,0.00,,,0.00,weatherlink.com 1.10,2016-07-25 04:34:00,
2016-07-25 00:49:00,74.2,72.0,29.93,NE,56,1.0,5.0,94,0.00,,,0.00,weatherlink.com 1.10,2016-07-25 04:49:00,
2016-07-25 01:04:00,73.8,72.0,29.91,ESE,120,2.0,4.0,94,0.00,,,0.00,weatherlink.com 1.10,2016-07-25 05:04:00,
2016-07-25 01:19:00,73.5,72.0,29.90,ESE,119,2.0,4.0,94,0.00,,,0.00,weatherlink.com 1.10,2016-07-25 05:19:00,
2016-07-25 01:34:00,73.2,72.0,29.90,SSE,159,0.0,1.0,95,0.00,,,0.00,weatherlink.com 1.10,2016-07-25 05:34:00,
2016-07-25 01:49:00,73.0,72.0,29.90,WSW,251,0.0,1.0,95,0.00,,,0.00,weatherlink.com 1.10,2016-07-25 05:49:00,
2016-07-25 02:04:00,72.6,71.0,29.90,WSW,251,0.0,2.0,95,0.00,,,0.00,weatherlink.com 1.10,2016-07-25 06:04:00,
2016-07-25 02:19:00,72.7,72.0,29.90,WSW,251,0.0,1.0,96,0.00,,,0.00,weatherlink.com 1.10,2016-07-25 06:19:00,
2016-07-25 02:34:00,72.6,71.0,29.90,WSW,251,0.0,2.0,96,0.00,,,0.00,weatherlink.com 1.10,2016-07-25 06:34:00,
2016-07-25 02:49:00,72.3,71.0,29.90,WSW,251,0.0,3.0,96,0.00,,,0.00,weatherlink.com 1.10,2016-07-25 06:49:00,
2016-07-25 03:04:00,72.1,71.0,29.91,WSW,251,1.0,2.0,96,0.00,,,0.00,weatherlink.com 1.10,2016-07-25 07:04:00,
2016-07-25 03:19:00,71.9,71.0,29.90,WSW,251,1.0,2.0,96,0.00,,,0.00,weatherlink.com 1.10,2016-07-25 07:19:00,
2016-07-25 03:34:00,71.9,71.0,29.90,SSE,155,0.0,3.0,96,0.00,,,0.00,weatherlink.com 1.10,2016-07-25 07:34:00,
2016-07-25 03:49:00,71.8,71.0,29.90,SE,143,1.0,3.0,96,0.00,,,0.00,weatherlink.com 1.10,2016-07-25 07:49:00,
2016-07-25 04:04:00,71.9,71.0,29.90,SSE,148,0.0,2.0,96,0.00,,,0.00,weatherlink.com 1.10,2016-07-25 08:04:00,
2016-07-25 04:19:00,71.9,71.0,29.90,SSE,148,0.0,0.0,96,0.00,,,0.00,weatherlink.com 1.10,2016-07-25 08:19:00,
2016-07-25 04:34:00,72.0,71.0,29.91,SSE,148,0.0,0.0,96,0.00,,,0.00,weatherlink.com 1.10,2016-07-25 08:34:00,
2016-07-25 04:49:00,71.9,71.0,29.91,SSE,148,1.0,4.0,96,0.00,,,0.00,weatherlink.com 1.10,2016-07-25 08:49:00,
2016-07-25 05:04:00,71.6,70.0,29.91,South,169,0.0,3.0,96,0.00,,,0.00,weatherlink.com 1.10,2016-07-25 09:04:00,
2016-07-25 05:19:00,71.5,70.0,29.91,SSE,165,1.0,4.0,96,0.00,,,0.00,weatherlink.com 1.10,2016-07-25 09:19:00,
2016-07-25 05:34:00,71.5,70.0,29.91,SSE,164,1.0,7.0,96,0.00,,,0.00,weatherlink.com 1.10,2016-07-25 09:34:00,
2016-07-25 05:49:00,71.4,70.0,29.91,SE,143,4.0,6.0,96,0.00,,,0.00,weatherlink.com 1.10,2016-07-25 09:49:00,
2016-07-25 06:04:00,71.4,70.0,29.91,SSE,159,4.0,6.0,96,0.00,,,0.00,weatherlink.com 1.10,2016-07-25 10:04:00,
2016-07-25 06:19:00,71.5,70.0,29.91,SE,137,2.0,6.0,96,0.00,,,0.00,weatherlink.com 1.10,2016-07-25 10:19:00,
2016-07-25 06:34:00,71.8,71.0,29.91,SE,136,2.0,6.0,96,0.00,,,0.00,weatherlink.com 1.10,2016-07-25 10:34:00,
2016-07-25 06:49:00,72.2,71.0,29.91,SE,144,3.0,8.0,96,0.00,,,0.00,weatherlink.com 1.10,2016-07-25 10:49:00,
2016-07-25 07:04:00,72.7,72.0,29.91,SSE,156,5.0,6.0,96,0.00,,,0.00,weatherlink.com 1.10,2016-07-25 11:04:00,
2016-07-25 07:19:00,73.3,72.0,29.92,SSE,163,6.0,6.0,96,0.00,,,0.00,weatherlink.com 1.10,2016-07-25 11:19:00,
2016-07-25 07:34:00,73.4,72.0,29.92,SSE,167,4.0,6.0,95,0.00,,,0.00,weatherlink.com 1.10,2016-07-25 11:34:00,
2016-07-25 07:49:00,74.1,73.0,29.91,South,189,0.0,6.0,95,0.00,,,0.00,weatherlink.com 1.10,2016-07-25 11:49:00,
2016-07-25 08:04:00,75.3,74.0,29.91,South,180,2.0,7.0,94,0.00,,,0.00,weatherlink.com 1.10,2016-07-25 12:04:00,
2016-07-25 08:19:00,76.4,74.0,29.90,SSW,200,5.0,8.0,91,0.00,,,0.00,weatherlink.com 1.10,2016-07-25 12:19:00,
2016-07-25 08:34:00,77.5,74.0,29.90,South,169,5.0,8.0,89,0.00,,,0.00,weatherlink.com 1.10,2016-07-25 12:34:00,
2016-07-25 08:49:00,78.5,74.0,29.90,South,187,4.0,8.0,87,0.00,,,0.00,weatherlink.com 1.10,2016-07-25 12:49:00,
2016-07-25 09:04:00,79.7,75.0,29.90,SSW,192,1.0,6.0,85,0.00,,,0.00,weatherlink.com 1.10,2016-07-25 13:04:00,
2016-07-25 09:20:00,81.1,74.0,29.90,South,190,4.0,8.0,80,0.00,,,0.00,weatherlink.com 1.10,2016-07-25 13:20:00,
2016-07-25 09:35:00,82.7,75.0,29.90,South,173,7.0,9.0,78,0.00,,,0.00,weatherlink.com 1.10,2016-07-25 13:35:00,
2016-07-25 09:50:00,83.0,75.0,29.90,SSW,194,3.0,7.0,77,0.00,,,0.00,weatherlink.com 1.10,2016-07-25 13:50:00,
2016-07-25 10:05:00,83.5,75.0,29.90,South,178,3.0,8.0,76,0.00,,,0.00,weatherlink.com 1.10,2016-07-25 14:05:00,
2016-07-25 10:20:00,83.7,76.0,29.89,South,186,5.0,7.0,78,0.00,,,0.00,weatherlink.com 1.10,2016-07-25 14:20:00,
2016-07-25 10:35:00,85.2,77.0,29.90,South,188,2.0,9.0,76,0.00,,,0.00,weatherlink.com 1.10,2016-07-25 14:35:00,
2016-07-25 10:50:00,85.0,77.0,29.90,South,184,5.0,6.0,76,0.00,,,0.00,weatherlink.com 1.10,2016-07-25 14:50:00,
2016-07-25 11:05:00,84.7,77.0,29.90,SSW,193,3.0,7.0,77,0.00,,,0.00,weatherlink.com 1.10,2016-07-25 15:05:00,
2016-07-25 11:20:00,85.8,76.0,29.89,South,188,3.0,9.0,73,0.00,,,0.00,weatherlink.com 1.10,2016-07-25 15:20:00,
2016-07-25 11:35:00,87.8,77.0,29.89,SSW,192,6.0,9.0,71,0.00,,,0.00,weatherlink.com 1.10,2016-07-25 15:35:00,
2016-07-25 11:50:00,88.5,78.0,29.89,SSW,203,5.0,10.0,70,0.00,,,0.00,weatherlink.com 1.10,2016-07-25 15:50:00,
2016-07-25 12:05:00,88.3,77.0,29.89,South,184,5.0,10.0,70,0.00,,,0.00,weatherlink.com 1.10,2016-07-25 16:05:00,
2016-07-25 12:20:00,87.4,78.0,29.87,SSW,194,2.0,6.0,74,0.00,,,0.00,weatherlink.com 1.10,2016-07-25 16:20:00,
2016-07-25 12:35:00,88.0,78.0,29.87,SSW,192,6.0,8.0,73,0.00,,,0.00,weatherlink.com 1.10,2016-07-25 16:35:00,
2016-07-25 12:50:00,90.4,79.0,29.86,SW,215,4.0,9.0,70,0.00,,,0.00,weatherlink.com 1.10,2016-07-25 16:50:00,
2016-07-25 13:05:00,91.9,78.0,29.85,South,169,7.0,7.0,64,0.00,,,0.00,weatherlink.com 1.10,2016-07-25 17:05:00,
2016-07-25 13:20:00,91.7,78.0,29.85,SSW,209,6.0,6.0,65,0.00,,,0.00,weatherlink.com 1.10,2016-07-25 17:20:00,
2016-07-25 13:35:00,91.5,79.0,29.84,SW,215,3.0,7.0,67,0.00,,,0.00,weatherlink.com 1.10,2016-07-25 17:35:00,
2016-07-25 13:50:00,89.7,79.0,29.84,West,263,2.0,14.0,71,0.05,,,0.05,weatherlink.com 1.10,2016-07-25 17:50:00,
2016-07-25 14:05:00,85.4,78.0,29.85,WNW,302,1.0,9.0,78,0.05,,,0.05,weatherlink.com 1.10,2016-07-25 18:05:00,
2016-07-25 14:20:00,82.5,75.0,29.83,North,355,2.0,13.0,78,0.11,,,0.11,weatherlink.com 1.10,2016-07-25 18:20:00,
2016-07-25 14:35:00,80.8,77.0,29.83,NE,39,4.0,7.0,87,0.11,,,0.11,weatherlink.com 1.10,2016-07-25 18:35:00,
2016-07-25 14:51:00,82.0,77.0,29.82,ESE,109,2.0,8.0,85,0.06,,,0.11,weatherlink.com 1.10,2016-07-25 18:51:00,
2016-07-25 15:05:00,84.1,79.0,29.81,NNE,13,3.0,6.0,83,0.06,,,0.11,weatherlink.com 1.10,2016-07-25 19:05:00,
2016-07-25 15:20:00,84.9,78.0,29.81,NNW,344,9.0,11.0,79,0.01,,,0.12,weatherlink.com 1.10,2016-07-25 19:20:00,
2016-07-25 15:35:00,83.2,77.0,29.82,West,281,4.0,12.0,82,0.01,,,0.12,weatherlink.com 1.10,2016-07-25 19:35:00,
2016-07-25 15:50:00,79.9,74.0,29.80,SE,140,8.0,17.0,83,0.20,,,0.31,weatherlink.com 1.10,2016-07-25 19:50:00,
2016-07-25 16:06:00,79.9,74.0,29.79,SE,131,11.0,15.0,82,0.20,,,0.31,weatherlink.com 1.10,2016-07-25 20:06:00,
2016-07-25 16:21:00,82.1,77.0,29.78,SE,130,5.0,9.0,83,0.19,,,0.31,weatherlink.com 1.10,2016-07-25 20:21:00,
2016-07-25 16:36:00,84.4,78.0,29.78,South,173,3.0,10.0,80,0.19,,,0.31,weatherlink.com 1.10,2016-07-25 20:36:00,
2016-07-25 16:51:00,85.5,78.0,29.79,SE,139,5.0,8.0,79,0.00,,,0.31,weatherlink.com 1.10,2016-07-25 20:51:00,
2016-07-25 17:06:00,86.3,77.0,29.79,SSE,160,5.0,9.0,74,0.00,,,0.31,weatherlink.com 1.10,2016-07-25 21:06:00,
2016-07-25 17:36:00,85.4,76.0,29.79,South,180,4.0,8.0,74,0.00,,,0.31,weatherlink.com 1.10,2016-07-25 21:36:00,
2016-07-25 17:51:00,84.6,75.0,29.79,South,178,4.0,11.0,73,0.00,,,0.31,weatherlink.com 1.10,2016-07-25 21:51:00,
2016-07-25 18:06:00,84.2,75.0,29.79,SSW,213,3.0,11.0,74,0.00,,,0.31,weatherlink.com 1.10,2016-07-25 22:06:00,
2016-07-25 18:21:00,84.2,76.0,29.81,NNW,341,5.0,12.0,75,0.00,,,0.31,weatherlink.com 1.10,2016-07-25 22:21:00,
2016-07-25 18:36:00,83.5,76.0,29.80,South,171,2.0,5.0,77,0.00,,,0.31,weatherlink.com 1.10,2016-07-25 22:36:00,
2016-07-25 18:52:00,83.6,74.0,29.80,ESE,104,2.0,7.0,72,0.00,,,0.31,weatherlink.com 1.10,2016-07-25 22:52:00,
2016-07-25 19:06:00,83.6,75.0,29.81,West,267,3.0,5.0,74,0.00,,,0.31,weatherlink.com 1.10,2016-07-25 23:06:00,
2016-07-25 19:21:00,83.3,75.0,29.82,SSW,202,1.0,4.0,76,0.00,,,0.31,weatherlink.com 1.10,2016-07-25 23:21:00,
2016-07-25 19:36:00,83.0,76.0,29.82,SSW,202,0.0,2.0,79,0.00,,,0.31,weatherlink.com 1.10,2016-07-25 23:36:00,
2016-07-25 19:51:00,82.4,76.0,29.82,North,355,3.0,4.0,82,0.00,,,0.31,weatherlink.com 1.10,2016-07-25 23:51:00,
2016-07-25 20:06:00,81.4,76.0,29.83,North,355,1.0,3.0,84,0.00,,,0.31,weatherlink.com 1.10,2016-07-26 00:06:00,
2016-07-25 20:21:00,80.9,76.0,29.83,SE,124,4.0,6.0,85,0.00,,,0.31,weatherlink.com 1.10,2016-07-26 00:21:00,
2016-07-25 20:36:00,80.0,76.0,29.83,SE,144,3.0,6.0,86,0.00,,,0.31,weatherlink.com 1.10,2016-07-26 00:36:00,
2016-07-25 20:51:00,79.9,75.0,29.83,SSE,149,2.0,4.0,85,0.00,,,0.31,weatherlink.com 1.10,2016-07-26 00:51:00,
2016-07-25 21:06:00,80.0,74.0,29.83,SSE,155,2.0,3.0,83,0.00,,,0.31,weatherlink.com 1.10,2016-07-26 01:06:00,
2016-07-25 21:21:00,80.1,75.0,29.84,SSE,159,2.0,8.0,83,0.00,,,0.31,weatherlink.com 1.10,2016-07-26 01:21:00,
2016-07-25 21:36:00,79.8,75.0,29.85,SE,144,3.0,5.0,84,0.00,,,0.31,weatherlink.com 1.10,2016-07-26 01:36:00,
2016-07-25 21:51:00,78.6,75.0,29.86,North,360,1.0,8.0,87,0.00,,,0.31,weatherlink.com 1.10,2016-07-26 01:51:00,
2016-07-25 22:06:00,77.7,75.0,29.86,North,360,0.0,0.0,90,0.00,,,0.31,weatherlink.com 1.10,2016-07-26 02:06:00,
2016-07-25 22:21:00,77.0,74.0,29.87,North,5,4.0,5.0,91,0.00,,,0.31,weatherlink.com 1.10,2016-07-26 02:21:00,
2016-07-25 22:36:00,76.3,74.0,29.87,NNE,14,1.0,3.0,93,0.00,,,0.31,weatherlink.com 1.10,2016-07-26 02:36:00,